sensor_id;sensor_type;location;lat;lon;timestamp;P1;durP1;ratioP1;P2;durP2;ratioP2
15055;SDS011;7626;42.674;23.284;2023-03-31T00:02:13;12.67;;;9.17;;
15055;SDS011;7626;42.674;23.284;2023-03-31T00:04:41;12.70;;;9.17;;
15055;SDS011;7626;42.674;23.284;2023-03-31T00:07:13;13.37;;;9.83;;
15055;SDS011;7626;42.674;23.284;2023-03-31T00:09:41;13.93;;;8.80;;
15055;SDS011;7626;42.674;23.284;2023-03-31T00:12:11;12.83;;;8.70;;
15055;SDS011;7626;42.674;23.284;2023-03-31T00:14:38;10.43;;;8.60;;
15055;SDS011;7626;42.674;23.284;2023-03-31T00:17:06;10.43;;;8.07;;
15055;SDS011;7626;42.674;23.284;2023-03-31T00:19:33;12.00;;;8.33;;
15055;SDS011;7626;42.674;23.284;2023-03-31T00:21:59;11.10;;;8.73;;
15055;SDS011;7626;42.674;23.284;2023-03-31T00:24:30;12.93;;;8.70;;
15055;SDS011;7626;42.674;23.284;2023-03-31T00:26:58;9.83;;;7.67;;
15055;SDS011;7626;42.674;23.284;2023-03-31T00:29:27;11.63;;;8.30;;
15055;SDS011;7626;42.674;23.284;2023-03-31T00:31:55;11.67;;;8.80;;
15055;SDS011;7626;42.674;23.284;2023-03-31T00:34:25;11.07;;;8.40;;
15055;SDS011;7626;42.674;23.284;2023-03-31T00:36:53;9.83;;;8.27;;
15055;SDS011;7626;42.674;23.284;2023-03-31T00:39:22;9.13;;;8.13;;
15055;SDS011;7626;42.674;23.284;2023-03-31T00:41:50;11.47;;;8.23;;
15055;SDS011;7626;42.674;23.284;2023-03-31T00:44:18;9.63;;;7.87;;
15055;SDS011;7626;42.674;23.284;2023-03-31T00:46:49;12.60;;;8.37;;
15055;SDS011;7626;42.674;23.284;2023-03-31T00:49:18;9.87;;;8.17;;
15055;SDS011;7626;42.674;23.284;2023-03-31T00:51:48;10.93;;;8.70;;
15055;SDS011;7626;42.674;23.284;2023-03-31T00:54:18;10.57;;;8.50;;
15055;SDS011;7626;42.674;23.284;2023-03-31T00:56:46;12.43;;;8.63;;
15055;SDS011;7626;42.674;23.284;2023-03-31T00:59:18;11.57;;;8.60;;
15055;SDS011;7626;42.674;23.284;2023-03-31T01:01:46;10.57;;;7.90;;
15055;SDS011;7626;42.674;23.284;2023-03-31T01:04:15;9.90;;;7.70;;
15055;SDS011;7626;42.674;23.284;2023-03-31T01:06:54;14.63;;;8.47;;
15055;SDS011;7626;42.674;23.284;2023-03-31T01:09:24;12.00;;;8.10;;
15055;SDS011;7626;42.674;23.284;2023-03-31T01:11:54;10.47;;;7.80;;
15055;SDS011;7626;42.674;23.284;2023-03-31T01:14:24;10.07;;;7.83;;
15055;SDS011;7626;42.674;23.284;2023-03-31T01:16:52;10.67;;;7.93;;
15055;SDS011;7626;42.674;23.284;2023-03-31T01:19:19;11.67;;;7.67;;
15055;SDS011;7626;42.674;23.284;2023-03-31T01:33:32;11.27;;;8.10;;
15055;SDS011;7626;42.674;23.284;2023-03-31T01:36:12;12.67;;;8.23;;
15055;SDS011;7626;42.674;23.284;2023-03-31T01:41:32;10.00;;;8.10;;
15055;SDS011;7626;42.674;23.284;2023-03-31T01:44:01;9.67;;;8.03;;
15055;SDS011;7626;42.674;23.284;2023-03-31T01:46:33;9.77;;;7.57;;
15055;SDS011;7626;42.674;23.284;2023-03-31T01:49:05;11.73;;;8.70;;
15055;SDS011;7626;42.674;23.284;2023-03-31T01:51:34;12.33;;;8.40;;
15055;SDS011;7626;42.674;23.284;2023-03-31T01:54:03;10.67;;;8.50;;
15055;SDS011;7626;42.674;23.284;2023-03-31T01:56:33;9.20;;;7.20;;
15055;SDS011;7626;42.674;23.284;2023-03-31T01:59:01;11.50;;;7.70;;
15055;SDS011;7626;42.674;23.284;2023-03-31T02:01:29;10.03;;;7.53;;
15055;SDS011;7626;42.674;23.284;2023-03-31T02:03:59;11.57;;;8.27;;
15055;SDS011;7626;42.674;23.284;2023-03-31T02:06:30;11.47;;;7.47;;
15055;SDS011;7626;42.674;23.284;2023-03-31T02:09:00;10.47;;;7.87;;
15055;SDS011;7626;42.674;23.284;2023-03-31T02:11:29;9.07;;;7.10;;
15055;SDS011;7626;42.674;23.284;2023-03-31T02:13:58;10.13;;;7.87;;
15055;SDS011;7626;42.674;23.284;2023-03-31T02:16:27;10.13;;;6.97;;
15055;SDS011;7626;42.674;23.284;2023-03-31T02:18:56;10.47;;;6.97;;
15055;SDS011;7626;42.674;23.284;2023-03-31T02:21:26;10.33;;;7.80;;
15055;SDS011;7626;42.674;23.284;2023-03-31T02:23:53;12.00;;;7.60;;
15055;SDS011;7626;42.674;23.284;2023-03-31T02:26:22;9.37;;;7.37;;
15055;SDS011;7626;42.674;23.284;2023-03-31T02:28:52;9.90;;;7.07;;
15055;SDS011;7626;42.674;23.284;2023-03-31T02:31:24;9.87;;;7.07;;
15055;SDS011;7626;42.674;23.284;2023-03-31T02:33:52;9.30;;;6.13;;
15055;SDS011;7626;42.674;23.284;2023-03-31T02:36:19;4.53;;;3.93;;
15055;SDS011;7626;42.674;23.284;2023-03-31T02:38:47;4.17;;;3.50;;
15055;SDS011;7626;42.674;23.284;2023-03-31T02:41:17;3.07;;;2.60;;
15055;SDS011;7626;42.674;23.284;2023-03-31T02:43:44;7.20;;;2.87;;
15055;SDS011;7626;42.674;23.284;2023-03-31T02:46:12;3.10;;;2.43;;
15055;SDS011;7626;42.674;23.284;2023-03-31T02:48:41;4.00;;;2.50;;
15055;SDS011;7626;42.674;23.284;2023-03-31T02:51:28;4.23;;;2.40;;
15055;SDS011;7626;42.674;23.284;2023-03-31T02:56:43;4.77;;;2.43;;
15055;SDS011;7626;42.674;23.284;2023-03-31T02:59:19;4.67;;;2.47;;
15055;SDS011;7626;42.674;23.284;2023-03-31T03:01:52;3.70;;;2.57;;
15055;SDS011;7626;42.674;23.284;2023-03-31T03:04:36;3.20;;;2.23;;
15055;SDS011;7626;42.674;23.284;2023-03-31T03:07:12;2.33;;;2.00;;
15055;SDS011;7626;42.674;23.284;2023-03-31T03:09:43;3.63;;;2.40;;
15055;SDS011;7626;42.674;23.284;2023-03-31T03:12:20;2.83;;;2.17;;
15055;SDS011;7626;42.674;23.284;2023-03-31T03:14:49;3.63;;;2.20;;
15055;SDS011;7626;42.674;23.284;2023-03-31T03:17:17;2.97;;;2.20;;
15055;SDS011;7626;42.674;23.284;2023-03-31T03:19:51;3.57;;;2.23;;
15055;SDS011;7626;42.674;23.284;2023-03-31T03:22:18;3.13;;;2.20;;
15055;SDS011;7626;42.674;23.284;2023-03-31T03:24:45;3.63;;;2.60;;
15055;SDS011;7626;42.674;23.284;2023-03-31T03:27:12;2.60;;;2.10;;
15055;SDS011;7626;42.674;23.284;2023-03-31T03:29:38;5.00;;;2.63;;
15055;SDS011;7626;42.674;23.284;2023-03-31T03:32:05;3.70;;;2.20;;
15055;SDS011;7626;42.674;23.284;2023-03-31T03:34:32;2.40;;;2.03;;
15055;SDS011;7626;42.674;23.284;2023-03-31T03:37:04;3.60;;;2.33;;
15055;SDS011;7626;42.674;23.284;2023-03-31T03:39:32;4.57;;;2.40;;
15055;SDS011;7626;42.674;23.284;2023-03-31T03:41:58;4.27;;;2.20;;
15055;SDS011;7626;42.674;23.284;2023-03-31T03:44:25;4.80;;;2.37;;
15055;SDS011;7626;42.674;23.284;2023-03-31T03:46:51;4.20;;;2.30;;
15055;SDS011;7626;42.674;23.284;2023-03-31T03:49:17;3.87;;;2.33;;
15055;SDS011;7626;42.674;23.284;2023-03-31T03:51:44;3.80;;;2.47;;
15055;SDS011;7626;42.674;23.284;2023-03-31T03:54:12;3.43;;;2.30;;
15055;SDS011;7626;42.674;23.284;2023-03-31T03:56:40;3.27;;;2.27;;
15055;SDS011;7626;42.674;23.284;2023-03-31T03:59:06;3.70;;;2.20;;
15055;SDS011;7626;42.674;23.284;2023-03-31T04:01:33;3.03;;;2.40;;
15055;SDS011;7626;42.674;23.284;2023-03-31T04:04:00;3.10;;;2.50;;
15055;SDS011;7626;42.674;23.284;2023-03-31T04:06:27;3.57;;;2.37;;
15055;SDS011;7626;42.674;23.284;2023-03-31T04:08:54;3.23;;;2.43;;
15055;SDS011;7626;42.674;23.284;2023-03-31T04:11:22;4.17;;;2.50;;
15055;SDS011;7626;42.674;23.284;2023-03-31T04:13:48;3.67;;;2.33;;
15055;SDS011;7626;42.674;23.284;2023-03-31T04:16:15;5.70;;;2.53;;
15055;SDS011;7626;42.674;23.284;2023-03-31T04:18:43;3.03;;;2.43;;
15055;SDS011;7626;42.674;23.284;2023-03-31T04:21:13;3.10;;;2.57;;
15055;SDS011;7626;42.674;23.284;2023-03-31T04:23:48;3.10;;;2.40;;
15055;SDS011;7626;42.674;23.284;2023-03-31T04:26:15;4.33;;;2.67;;
15055;SDS011;7626;42.674;23.284;2023-03-31T04:31:32;4.57;;;2.53;;
15055;SDS011;7626;42.674;23.284;2023-03-31T04:34:02;4.70;;;3.53;;
15055;SDS011;7626;42.674;23.284;2023-03-31T04:36:30;5.07;;;3.50;;
15055;SDS011;7626;42.674;23.284;2023-03-31T04:38:57;5.37;;;3.63;;
15055;SDS011;7626;42.674;23.284;2023-03-31T04:41:26;4.43;;;3.20;;
15055;SDS011;7626;42.674;23.284;2023-03-31T04:43:53;4.23;;;3.70;;
15055;SDS011;7626;42.674;23.284;2023-03-31T04:46:20;6.80;;;3.80;;
15055;SDS011;7626;42.674;23.284;2023-03-31T04:48:49;5.63;;;3.80;;
15055;SDS011;7626;42.674;23.284;2023-03-31T04:51:16;7.07;;;4.00;;
15055;SDS011;7626;42.674;23.284;2023-03-31T04:53:44;5.63;;;4.00;;
15055;SDS011;7626;42.674;23.284;2023-03-31T04:56:12;5.57;;;4.10;;
15055;SDS011;7626;42.674;23.284;2023-03-31T04:58:39;5.27;;;3.70;;
15055;SDS011;7626;42.674;23.284;2023-03-31T05:01:07;6.63;;;3.90;;
15055;SDS011;7626;42.674;23.284;2023-03-31T05:03:34;5.10;;;3.57;;
15055;SDS011;7626;42.674;23.284;2023-03-31T05:06:02;4.40;;;2.80;;
15055;SDS011;7626;42.674;23.284;2023-03-31T05:08:28;4.40;;;2.90;;
15055;SDS011;7626;42.674;23.284;2023-03-31T05:10:55;4.13;;;2.90;;
15055;SDS011;7626;42.674;23.284;2023-03-31T05:13:22;4.40;;;2.70;;
15055;SDS011;7626;42.674;23.284;2023-03-31T05:15:48;5.23;;;3.00;;
15055;SDS011;7626;42.674;23.284;2023-03-31T05:18:16;4.40;;;3.37;;
15055;SDS011;7626;42.674;23.284;2023-03-31T05:20:42;7.70;;;3.97;;
15055;SDS011;7626;42.674;23.284;2023-03-31T05:23:10;6.60;;;3.80;;
15055;SDS011;7626;42.674;23.284;2023-03-31T05:25:36;5.67;;;3.77;;
15055;SDS011;7626;42.674;23.284;2023-03-31T05:28:03;6.90;;;4.60;;
15055;SDS011;7626;42.674;23.284;2023-03-31T05:30:30;5.97;;;4.13;;
15055;SDS011;7626;42.674;23.284;2023-03-31T05:32:56;7.87;;;6.20;;
15055;SDS011;7626;42.674;23.284;2023-03-31T05:35:23;6.47;;;5.30;;
15055;SDS011;7626;42.674;23.284;2023-03-31T05:37:50;6.63;;;4.83;;
15055;SDS011;7626;42.674;23.284;2023-03-31T05:40:18;7.50;;;5.30;;
15055;SDS011;7626;42.674;23.284;2023-03-31T05:42:44;6.83;;;4.97;;
15055;SDS011;7626;42.674;23.284;2023-03-31T05:45:11;7.23;;;5.07;;
15055;SDS011;7626;42.674;23.284;2023-03-31T05:47:37;7.03;;;4.87;;
15055;SDS011;7626;42.674;23.284;2023-03-31T05:50:05;8.17;;;5.33;;
15055;SDS011;7626;42.674;23.284;2023-03-31T05:52:33;7.00;;;5.37;;
15055;SDS011;7626;42.674;23.284;2023-03-31T05:54:59;5.17;;;4.60;;
15055;SDS011;7626;42.674;23.284;2023-03-31T05:57:27;6.57;;;4.63;;
15055;SDS011;7626;42.674;23.284;2023-03-31T05:59:54;6.73;;;5.20;;
15055;SDS011;7626;42.674;23.284;2023-03-31T06:02:20;7.70;;;4.70;;
15055;SDS011;7626;42.674;23.284;2023-03-31T06:04:47;5.90;;;4.43;;
15055;SDS011;7626;42.674;23.284;2023-03-31T06:07:14;8.10;;;5.70;;
15055;SDS011;7626;42.674;23.284;2023-03-31T06:09:41;8.03;;;5.10;;
15055;SDS011;7626;42.674;23.284;2023-03-31T06:12:08;8.87;;;4.63;;
15055;SDS011;7626;42.674;23.284;2023-03-31T06:14:36;7.23;;;4.27;;
15055;SDS011;7626;42.674;23.284;2023-03-31T06:17:02;7.40;;;4.23;;
15055;SDS011;7626;42.674;23.284;2023-03-31T06:19:29;6.07;;;4.07;;
15055;SDS011;7626;42.674;23.284;2023-03-31T06:21:56;5.20;;;3.80;;
15055;SDS011;7626;42.674;23.284;2023-03-31T06:24:23;5.87;;;3.90;;
15055;SDS011;7626;42.674;23.284;2023-03-31T06:26:49;8.67;;;3.70;;
15055;SDS011;7626;42.674;23.284;2023-03-31T06:29:16;4.03;;;2.57;;
15055;SDS011;7626;42.674;23.284;2023-03-31T06:31:43;6.37;;;2.77;;
15055;SDS011;7626;42.674;23.284;2023-03-31T06:34:10;4.63;;;2.90;;
15055;SDS011;7626;42.674;23.284;2023-03-31T06:36:37;6.40;;;2.77;;
15055;SDS011;7626;42.674;23.284;2023-03-31T06:39:03;4.43;;;2.70;;
15055;SDS011;7626;42.674;23.284;2023-03-31T06:41:30;3.87;;;2.53;;
15055;SDS011;7626;42.674;23.284;2023-03-31T06:43:56;2.93;;;2.47;;
15055;SDS011;7626;42.674;23.284;2023-03-31T06:46:22;3.93;;;3.00;;
15055;SDS011;7626;42.674;23.284;2023-03-31T06:48:50;5.53;;;2.57;;
15055;SDS011;7626;42.674;23.284;2023-03-31T06:51:18;4.87;;;2.60;;
15055;SDS011;7626;42.674;23.284;2023-03-31T06:53:45;4.43;;;2.70;;
15055;SDS011;7626;42.674;23.284;2023-03-31T06:56:11;5.93;;;2.40;;
15055;SDS011;7626;42.674;23.284;2023-03-31T06:58:38;3.73;;;2.50;;
15055;SDS011;7626;42.674;23.284;2023-03-31T07:01:04;4.07;;;2.60;;
15055;SDS011;7626;42.674;23.284;2023-03-31T07:03:31;4.77;;;2.60;;
15055;SDS011;7626;42.674;23.284;2023-03-31T07:05:59;4.00;;;2.53;;
15055;SDS011;7626;42.674;23.284;2023-03-31T07:08:26;5.40;;;2.30;;
15055;SDS011;7626;42.674;23.284;2023-03-31T07:10:53;4.33;;;2.63;;
15055;SDS011;7626;42.674;23.284;2023-03-31T07:13:21;3.80;;;3.10;;
15055;SDS011;7626;42.674;23.284;2023-03-31T07:15:48;6.73;;;2.43;;
15055;SDS011;7626;42.674;23.284;2023-03-31T07:18:15;5.70;;;2.90;;
15055;SDS011;7626;42.674;23.284;2023-03-31T07:20:42;6.40;;;2.63;;
15055;SDS011;7626;42.674;23.284;2023-03-31T07:23:10;5.70;;;3.00;;
15055;SDS011;7626;42.674;23.284;2023-03-31T07:25:36;6.67;;;3.70;;
15055;SDS011;7626;42.674;23.284;2023-03-31T07:28:03;5.00;;;3.00;;
15055;SDS011;7626;42.674;23.284;2023-03-31T07:30:30;4.77;;;3.40;;
15055;SDS011;7626;42.674;23.284;2023-03-31T07:32:56;5.67;;;3.80;;
15055;SDS011;7626;42.674;23.284;2023-03-31T07:35:23;6.17;;;3.83;;
15055;SDS011;7626;42.674;23.284;2023-03-31T07:37:49;6.20;;;3.60;;
15055;SDS011;7626;42.674;23.284;2023-03-31T07:40:18;4.90;;;3.27;;
15055;SDS011;7626;42.674;23.284;2023-03-31T07:42:45;6.60;;;3.73;;
15055;SDS011;7626;42.674;23.284;2023-03-31T07:45:13;4.77;;;3.47;;
15055;SDS011;7626;42.674;23.284;2023-03-31T07:47:40;6.33;;;3.60;;
15055;SDS011;7626;42.674;23.284;2023-03-31T07:50:07;6.13;;;4.13;;
15055;SDS011;7626;42.674;23.284;2023-03-31T07:52:34;5.57;;;3.93;;
15055;SDS011;7626;42.674;23.284;2023-03-31T07:55:00;7.33;;;3.60;;
15055;SDS011;7626;42.674;23.284;2023-03-31T07:57:29;6.23;;;3.70;;
15055;SDS011;7626;42.674;23.284;2023-03-31T07:59:55;5.93;;;3.50;;
15055;SDS011;7626;42.674;23.284;2023-03-31T08:02:22;6.30;;;3.67;;
15055;SDS011;7626;42.674;23.284;2023-03-31T08:04:48;5.47;;;3.70;;
15055;SDS011;7626;42.674;23.284;2023-03-31T08:07:15;7.00;;;3.60;;
15055;SDS011;7626;42.674;23.284;2023-03-31T08:09:43;5.50;;;3.37;;
15055;SDS011;7626;42.674;23.284;2023-03-31T08:12:09;5.27;;;3.77;;
15055;SDS011;7626;42.674;23.284;2023-03-31T08:14:37;4.13;;;3.30;;
15055;SDS011;7626;42.674;23.284;2023-03-31T08:17:04;5.23;;;3.53;;
15055;SDS011;7626;42.674;23.284;2023-03-31T08:19:30;6.50;;;3.60;;
15055;SDS011;7626;42.674;23.284;2023-03-31T08:21:57;5.63;;;3.50;;
15055;SDS011;7626;42.674;23.284;2023-03-31T08:24:23;7.03;;;3.30;;
15055;SDS011;7626;42.674;23.284;2023-03-31T08:26:50;6.03;;;3.70;;
15055;SDS011;7626;42.674;23.284;2023-03-31T08:29:17;6.23;;;3.40;;
15055;SDS011;7626;42.674;23.284;2023-03-31T08:31:44;5.90;;;3.37;;
15055;SDS011;7626;42.674;23.284;2023-03-31T08:34:11;6.40;;;3.30;;
15055;SDS011;7626;42.674;23.284;2023-03-31T08:36:37;6.27;;;3.30;;
15055;SDS011;7626;42.674;23.284;2023-03-31T08:39:05;4.23;;;3.20;;
15055;SDS011;7626;42.674;23.284;2023-03-31T08:41:34;3.93;;;3.13;;
15055;SDS011;7626;42.674;23.284;2023-03-31T08:44:01;4.10;;;3.20;;
15055;SDS011;7626;42.674;23.284;2023-03-31T08:46:29;4.43;;;2.80;;
15055;SDS011;7626;42.674;23.284;2023-03-31T08:48:58;6.70;;;3.20;;
15055;SDS011;7626;42.674;23.284;2023-03-31T08:51:27;5.33;;;3.00;;
15055;SDS011;7626;42.674;23.284;2023-03-31T08:53:56;7.43;;;2.93;;
15055;SDS011;7626;42.674;23.284;2023-03-31T08:56:23;6.43;;;3.47;;
15055;SDS011;7626;42.674;23.284;2023-03-31T08:58:51;7.77;;;3.43;;
15055;SDS011;7626;42.674;23.284;2023-03-31T09:01:21;8.00;;;3.40;;
15055;SDS011;7626;42.674;23.284;2023-03-31T09:03:52;4.47;;;2.90;;
15055;SDS011;7626;42.674;23.284;2023-03-31T09:06:28;4.80;;;2.70;;
15055;SDS011;7626;42.674;23.284;2023-03-31T09:08:59;6.10;;;3.10;;
15055;SDS011;7626;42.674;23.284;2023-03-31T09:11:28;5.37;;;2.70;;
15055;SDS011;7626;42.674;23.284;2023-03-31T09:14:05;5.70;;;2.80;;
15055;SDS011;7626;42.674;23.284;2023-03-31T09:16:36;6.50;;;2.67;;
15055;SDS011;7626;42.674;23.284;2023-03-31T09:19:07;4.80;;;2.90;;
15055;SDS011;7626;42.674;23.284;2023-03-31T09:21:39;9.30;;;3.10;;
15055;SDS011;7626;42.674;23.284;2023-03-31T09:24:07;3.80;;;2.57;;
15055;SDS011;7626;42.674;23.284;2023-03-31T09:26:37;4.80;;;2.80;;
15055;SDS011;7626;42.674;23.284;2023-03-31T09:29:06;4.60;;;2.60;;
15055;SDS011;7626;42.674;23.284;2023-03-31T09:31:36;5.37;;;2.90;;
15055;SDS011;7626;42.674;23.284;2023-03-31T09:34:08;7.97;;;2.97;;
15055;SDS011;7626;42.674;23.284;2023-03-31T09:36:37;4.10;;;2.30;;
15055;SDS011;7626;42.674;23.284;2023-03-31T09:39:04;3.87;;;2.43;;
15055;SDS011;7626;42.674;23.284;2023-03-31T09:41:31;7.33;;;2.73;;
15055;SDS011;7626;42.674;23.284;2023-03-31T09:43:57;5.07;;;2.60;;
15055;SDS011;7626;42.674;23.284;2023-03-31T09:46:25;4.73;;;2.73;;
15055;SDS011;7626;42.674;23.284;2023-03-31T09:48:54;5.63;;;2.47;;
15055;SDS011;7626;42.674;23.284;2023-03-31T09:51:25;3.50;;;2.10;;
15055;SDS011;7626;42.674;23.284;2023-03-31T09:53:57;5.67;;;2.67;;
15055;SDS011;7626;42.674;23.284;2023-03-31T09:56:31;5.80;;;2.37;;
15055;SDS011;7626;42.674;23.284;2023-03-31T09:58:59;5.00;;;3.00;;
15055;SDS011;7626;42.674;23.284;2023-03-31T10:01:26;5.80;;;2.67;;
15055;SDS011;7626;42.674;23.284;2023-03-31T10:03:54;4.60;;;2.30;;
15055;SDS011;7626;42.674;23.284;2023-03-31T10:06:20;6.00;;;2.60;;
15055;SDS011;7626;42.674;23.284;2023-03-31T10:08:48;6.37;;;2.40;;
15055;SDS011;7626;42.674;23.284;2023-03-31T10:11:18;3.73;;;2.43;;
15055;SDS011;7626;42.674;23.284;2023-03-31T10:13:45;4.23;;;2.63;;
15055;SDS011;7626;42.674;23.284;2023-03-31T10:16:13;4.80;;;2.23;;
15055;SDS011;7626;42.674;23.284;2023-03-31T10:18:40;3.70;;;2.40;;
15055;SDS011;7626;42.674;23.284;2023-03-31T10:21:17;4.40;;;2.43;;
15055;SDS011;7626;42.674;23.284;2023-03-31T10:23:45;4.07;;;2.60;;
15055;SDS011;7626;42.674;23.284;2023-03-31T10:26:13;4.43;;;2.53;;
15055;SDS011;7626;42.674;23.284;2023-03-31T10:28:43;3.63;;;2.27;;
15055;SDS011;7626;42.674;23.284;2023-03-31T10:31:09;4.80;;;3.03;;
15055;SDS011;7626;42.674;23.284;2023-03-31T10:33:38;5.33;;;2.63;;
15055;SDS011;7626;42.674;23.284;2023-03-31T10:36:12;4.03;;;2.23;;
15055;SDS011;7626;42.674;23.284;2023-03-31T10:38:41;5.23;;;2.50;;
15055;SDS011;7626;42.674;23.284;2023-03-31T10:41:09;3.60;;;2.10;;
15055;SDS011;7626;42.674;23.284;2023-03-31T10:43:37;4.10;;;2.47;;
15055;SDS011;7626;42.674;23.284;2023-03-31T10:46:07;4.07;;;2.30;;
15055;SDS011;7626;42.674;23.284;2023-03-31T10:48:34;4.47;;;2.50;;
15055;SDS011;7626;42.674;23.284;2023-03-31T10:51:03;6.23;;;2.43;;
15055;SDS011;7626;42.674;23.284;2023-03-31T10:53:30;5.60;;;2.50;;
15055;SDS011;7626;42.674;23.284;2023-03-31T10:56:07;4.50;;;2.67;;
15055;SDS011;7626;42.674;23.284;2023-03-31T10:58:38;3.90;;;2.63;;
15055;SDS011;7626;42.674;23.284;2023-03-31T11:01:11;4.17;;;2.93;;
15055;SDS011;7626;42.674;23.284;2023-03-31T11:03:54;5.73;;;2.70;;
15055;SDS011;7626;42.674;23.284;2023-03-31T11:06:25;3.40;;;2.50;;
15055;SDS011;7626;42.674;23.284;2023-03-31T11:08:55;5.37;;;2.53;;
15055;SDS011;7626;42.674;23.284;2023-03-31T11:11:26;3.50;;;2.40;;
15055;SDS011;7626;42.674;23.284;2023-03-31T11:13:58;5.97;;;2.90;;
15055;SDS011;7626;42.674;23.284;2023-03-31T11:16:29;3.57;;;2.40;;
15055;SDS011;7626;42.674;23.284;2023-03-31T11:19:04;6.27;;;2.70;;
15055;SDS011;7626;42.674;23.284;2023-03-31T11:21:37;4.10;;;2.47;;
15055;SDS011;7626;42.674;23.284;2023-03-31T11:24:09;4.13;;;2.40;;
15055;SDS011;7626;42.674;23.284;2023-03-31T11:26:42;3.27;;;2.27;;
15055;SDS011;7626;42.674;23.284;2023-03-31T11:29:14;4.03;;;2.50;;
15055;SDS011;7626;42.674;23.284;2023-03-31T11:31:47;4.80;;;2.43;;
15055;SDS011;7626;42.674;23.284;2023-03-31T11:34:19;5.53;;;2.37;;
15055;SDS011;7626;42.674;23.284;2023-03-31T11:36:51;5.97;;;2.50;;
15055;SDS011;7626;42.674;23.284;2023-03-31T11:39:27;4.27;;;2.40;;
15055;SDS011;7626;42.674;23.284;2023-03-31T11:41:56;3.20;;;2.63;;
15055;SDS011;7626;42.674;23.284;2023-03-31T11:44:23;3.77;;;2.90;;
15055;SDS011;7626;42.674;23.284;2023-03-31T11:46:52;6.83;;;2.37;;
15055;SDS011;7626;42.674;23.284;2023-03-31T11:49:21;4.33;;;2.43;;
15055;SDS011;7626;42.674;23.284;2023-03-31T11:51:50;5.97;;;3.00;;
15055;SDS011;7626;42.674;23.284;2023-03-31T11:54:19;5.70;;;2.67;;
15055;SDS011;7626;42.674;23.284;2023-03-31T11:56:49;6.77;;;3.00;;
15055;SDS011;7626;42.674;23.284;2023-03-31T11:59:16;6.13;;;2.97;;
15055;SDS011;7626;42.674;23.284;2023-03-31T12:01:46;5.23;;;3.53;;
15055;SDS011;7626;42.674;23.284;2023-03-31T12:04:19;6.13;;;3.17;;
15055;SDS011;7626;42.674;23.284;2023-03-31T12:06:47;7.87;;;3.60;;
15055;SDS011;7626;42.674;23.284;2023-03-31T12:09:18;5.67;;;3.00;;
15055;SDS011;7626;42.674;23.284;2023-03-31T12:11:47;8.03;;;3.40;;
15055;SDS011;7626;42.674;23.284;2023-03-31T12:14:20;4.87;;;3.10;;
15055;SDS011;7626;42.674;23.284;2023-03-31T12:16:50;4.57;;;2.80;;
15055;SDS011;7626;42.674;23.284;2023-03-31T12:19:19;4.50;;;3.00;;
15055;SDS011;7626;42.674;23.284;2023-03-31T12:21:48;4.60;;;3.03;;
15055;SDS011;7626;42.674;23.284;2023-03-31T12:24:15;5.83;;;2.70;;
15055;SDS011;7626;42.674;23.284;2023-03-31T12:26:43;6.47;;;3.20;;
15055;SDS011;7626;42.674;23.284;2023-03-31T12:29:15;4.87;;;3.03;;
15055;SDS011;7626;42.674;23.284;2023-03-31T12:31:46;4.90;;;2.97;;
15055;SDS011;7626;42.674;23.284;2023-03-31T12:34:13;5.60;;;3.03;;
15055;SDS011;7626;42.674;23.284;2023-03-31T12:36:46;9.30;;;3.30;;
15055;SDS011;7626;42.674;23.284;2023-03-31T12:39:21;5.20;;;2.70;;
15055;SDS011;7626;42.674;23.284;2023-03-31T12:41:56;5.10;;;2.97;;
15055;SDS011;7626;42.674;23.284;2023-03-31T12:44:29;4.07;;;2.63;;
15055;SDS011;7626;42.674;23.284;2023-03-31T12:47:12;5.47;;;3.00;;
15055;SDS011;7626;42.674;23.284;2023-03-31T12:49:46;6.33;;;2.60;;
15055;SDS011;7626;42.674;23.284;2023-03-31T12:52:17;3.73;;;2.40;;
15055;SDS011;7626;42.674;23.284;2023-03-31T12:57:28;5.00;;;2.53;;
15055;SDS011;7626;42.674;23.284;2023-03-31T13:02:41;5.73;;;2.73;;
15055;SDS011;7626;42.674;23.284;2023-03-31T13:07:50;3.57;;;2.63;;
15055;SDS011;7626;42.674;23.284;2023-03-31T13:10:27;3.97;;;2.77;;
15055;SDS011;7626;42.674;23.284;2023-03-31T13:12:59;5.50;;;2.80;;
15055;SDS011;7626;42.674;23.284;2023-03-31T13:15:27;4.60;;;2.60;;
15055;SDS011;7626;42.674;23.284;2023-03-31T13:17:55;4.67;;;2.67;;
15055;SDS011;7626;42.674;23.284;2023-03-31T13:20:25;6.13;;;2.70;;
15055;SDS011;7626;42.674;23.284;2023-03-31T13:23:00;5.47;;;2.80;;
15055;SDS011;7626;42.674;23.284;2023-03-31T13:28:17;4.10;;;2.60;;
15055;SDS011;7626;42.674;23.284;2023-03-31T13:31:06;5.50;;;2.80;;
15055;SDS011;7626;42.674;23.284;2023-03-31T13:33:43;5.57;;;2.87;;
15055;SDS011;7626;42.674;23.284;2023-03-31T13:39:10;6.67;;;2.50;;
15055;SDS011;7626;42.674;23.284;2023-03-31T13:41:44;4.13;;;2.67;;
15055;SDS011;7626;42.674;23.284;2023-03-31T13:44:21;4.83;;;2.70;;
15055;SDS011;7626;42.674;23.284;2023-03-31T13:52:20;4.20;;;3.00;;
15055;SDS011;7626;42.674;23.284;2023-03-31T13:54:57;4.30;;;2.80;;
15055;SDS011;7626;42.674;23.284;2023-03-31T14:02:57;3.60;;;2.70;;
15055;SDS011;7626;42.674;23.284;2023-03-31T14:05:29;5.27;;;3.10;;
15055;SDS011;7626;42.674;23.284;2023-03-31T14:07:57;6.77;;;2.80;;
15055;SDS011;7626;42.674;23.284;2023-03-31T14:10:26;3.60;;;2.33;;
15055;SDS011;7626;42.674;23.284;2023-03-31T14:13:04;3.37;;;2.47;;
15055;SDS011;7626;42.674;23.284;2023-03-31T14:15:31;3.93;;;2.53;;
15055;SDS011;7626;42.674;23.284;2023-03-31T14:17:58;4.13;;;2.80;;
15055;SDS011;7626;42.674;23.284;2023-03-31T14:20:30;4.93;;;2.83;;
15055;SDS011;7626;42.674;23.284;2023-03-31T14:23:07;5.03;;;3.30;;
15055;SDS011;7626;42.674;23.284;2023-03-31T14:25:42;4.27;;;3.03;;
15055;SDS011;7626;42.674;23.284;2023-03-31T14:28:13;4.97;;;3.37;;
15055;SDS011;7626;42.674;23.284;2023-03-31T14:30:46;5.77;;;3.27;;
15055;SDS011;7626;42.674;23.284;2023-03-31T14:33:20;5.03;;;3.20;;
15055;SDS011;7626;42.674;23.284;2023-03-31T14:35:52;7.03;;;3.63;;
15055;SDS011;7626;42.674;23.284;2023-03-31T14:38:22;5.47;;;3.50;;
15055;SDS011;7626;42.674;23.284;2023-03-31T14:40:50;3.77;;;2.93;;
15055;SDS011;7626;42.674;23.284;2023-03-31T14:43:18;5.47;;;2.97;;
15055;SDS011;7626;42.674;23.284;2023-03-31T14:45:45;3.90;;;2.57;;
15055;SDS011;7626;42.674;23.284;2023-03-31T14:48:12;4.03;;;3.40;;
15055;SDS011;7626;42.674;23.284;2023-03-31T14:50:41;5.77;;;2.90;;
15055;SDS011;7626;42.674;23.284;2023-03-31T14:53:12;3.53;;;2.77;;
15055;SDS011;7626;42.674;23.284;2023-03-31T14:55:39;5.30;;;3.00;;
15055;SDS011;7626;42.674;23.284;2023-03-31T14:58:07;3.67;;;2.60;;
15055;SDS011;7626;42.674;23.284;2023-03-31T15:00:36;5.37;;;2.60;;
15055;SDS011;7626;42.674;23.284;2023-03-31T15:03:04;4.70;;;2.90;;
15055;SDS011;7626;42.674;23.284;2023-03-31T15:05:33;6.17;;;3.20;;
15055;SDS011;7626;42.674;23.284;2023-03-31T15:08:01;5.57;;;2.90;;
15055;SDS011;7626;42.674;23.284;2023-03-31T15:10:29;6.63;;;3.07;;
15055;SDS011;7626;42.674;23.284;2023-03-31T15:12:58;5.63;;;3.00;;
15055;SDS011;7626;42.674;23.284;2023-03-31T15:15:28;7.13;;;3.00;;
15055;SDS011;7626;42.674;23.284;2023-03-31T15:17:55;4.47;;;3.17;;
15055;SDS011;7626;42.674;23.284;2023-03-31T15:20:27;5.37;;;3.00;;
15055;SDS011;7626;42.674;23.284;2023-03-31T15:22:54;5.93;;;2.97;;
15055;SDS011;7626;42.674;23.284;2023-03-31T15:25:21;4.47;;;3.23;;
15055;SDS011;7626;42.674;23.284;2023-03-31T15:27:49;5.57;;;3.30;;
15055;SDS011;7626;42.674;23.284;2023-03-31T15:30:18;6.83;;;3.73;;
15055;SDS011;7626;42.674;23.284;2023-03-31T15:32:46;5.20;;;3.13;;
15055;SDS011;7626;42.674;23.284;2023-03-31T15:35:18;44.07;;;7.87;;
15055;SDS011;7626;42.674;23.284;2023-03-31T15:37:45;37.13;;;6.83;;
15055;SDS011;7626;42.674;23.284;2023-03-31T15:40:17;28.97;;;6.57;;
15055;SDS011;7626;42.674;23.284;2023-03-31T15:42:45;24.50;;;5.57;;